Startpagina
METAR-TAF:

METAR-TAF

Vliegvelden :

Szczecin, Polen

breedte: 53-35N, lengte: 014-54E, hoogte: 1 m

Actueel weer

Dit bericht is 18 minuten geleden gemaakt, om 13:00 UTC
Wind 12 kt uit het noordoosten, variërend tussen het noordnoordwesten en het oosten
Temperatuur 16°C
Vochtigheid 45%
Druk 1023 hPa
Zicht 10 km of meer
Weinig wolken op 4200 ft

METAR: EPSC 301300Z 04012KT 340V090 9999 FEW042 16/04 Q1023

Tijdstip: 15:18 (13:18 UTC)

Verwachting

Dit bericht is 1 uur en het 48 minuten geleden gemaakt, om 11:30 UTC
Verwachting geldig van 30 om 12 UTC tot 31 om 12 UTC
Wind 12 kt uit het noorden
Zicht 10 km of meer
Weinig wolken op 3500 ft
Kans 40% :
Tijdelijke
van 30 om 12 UTC tot 30 om 16 UTC
Wind 15 kt uit het noorden met uitschieters tot 25 kt
Tijdelijke
van 31 om 07 UTC tot 31 om 12 UTC
Wind 17 kt uit het noorden met uitschieters tot 31 kt

TAF: EPSC 301130Z 3012/3112 01012KT 9999 FEW035 PROB40 TEMPO 3012/3016 01015G25KT TEMPO 3107/3112 01017G31KT

Waarnemingen en weersverwachtingen van meer dan 4000 vliegvelden (METAR en TAF).

De beschikbare stations zijn de gele en rode punten op de kaart.

Ga met uw muis naar het station om de naam te zien.

Klik dan om waarnemingen en weersverwachtingen te zien.

kaart wijzigen: klik op de groene knoppen met een zwart kruis om in te zoomen, op de groene knop met een streepje om uit te zoomen of op de groene pijlen voor aangrenzende kaarten.


METAR-TAF: